createdAt,value
2023-01-13T00:01:15.637Z,99925.88
2023-01-13T00:03:42.004Z,99916.16
2023-01-13T00:06:12.302Z,99921.50
2023-01-13T00:08:38.564Z,99917.16
2023-01-13T00:11:04.994Z,99912.75
2023-01-13T00:13:31.309Z,99908.41
2023-01-13T00:15:58.250Z,99909.25
2023-01-13T00:18:24.545Z,99907.56
2023-01-13T00:20:57.667Z,99913.75
2023-01-13T00:23:26.458Z,99914.59
2023-01-13T00:25:54.704Z,99919.09
2023-01-13T00:28:20.975Z,99912.91
2023-01-13T00:30:47.350Z,99924.63
2023-01-13T00:33:13.631Z,99928.97
2023-01-13T00:35:39.913Z,99935.31
2023-01-13T00:38:06.242Z,99933.63
2023-01-13T00:40:33.854Z,99946.03
2023-01-13T00:43:00.208Z,99934.59
2023-01-13T00:45:26.505Z,99927.56
2023-01-13T00:47:52.817Z,99932.66
2023-01-13T00:50:19.108Z,99929.41
2023-01-13T00:52:45.410Z,99931.09
2023-01-13T00:55:11.703Z,99933.03
2023-01-13T00:57:39.286Z,99941.06
2023-01-13T01:00:05.868Z,99934.03
2023-01-13T01:02:32.364Z,99939.38
2023-01-13T01:04:58.728Z,99933.19
2023-01-13T01:07:25.059Z,99935.88
2023-01-13T01:09:51.350Z,99932.34
2023-01-13T01:12:17.639Z,99935.88
2023-01-13T01:14:45.411Z,99945.84
2023-01-13T01:17:11.719Z,99941.34
2023-01-13T01:19:38.037Z,99940.50
2023-01-13T01:22:04.328Z,99942.34
2023-01-13T01:24:30.721Z,99941.50
2023-01-13T01:26:57.034Z,99950.38
2023-01-13T01:29:23.318Z,99958.41
2023-01-13T01:31:50.926Z,99954.16
2023-01-13T01:34:17.277Z,99964.03
2023-01-13T01:36:43.599Z,99956.84
2023-01-13T01:39:10.019Z,99959.50
2023-01-13T01:41:36.760Z,99963.19
2023-01-13T01:44:07.349Z,99955.28
2023-01-13T01:46:35.418Z,99954.44
2023-01-13T01:49:06.903Z,99965.16
2023-01-13T01:51:34.283Z,99964.16
2023-01-13T01:54:02.455Z,99969.63
2023-01-13T01:56:29.117Z,99960.78
2023-01-13T01:58:55.436Z,99969.63
2023-01-13T02:01:21.803Z,99964.28
2023-01-13T02:03:52.388Z,99973.31
2023-01-13T02:06:20.234Z,99982.34
2023-01-13T02:08:47.177Z,99979.50
2023-01-13T02:11:23.371Z,99975.16
2023-01-13T02:13:49.681Z,99977.81
2023-01-13T02:16:19.877Z,99981.50
2023-01-13T02:18:53.506Z,99982.34
2023-01-13T02:21:36.581Z,99994.88
2023-01-13T02:24:14.466Z,100001.19
2023-01-13T02:26:52.977Z,100003.75
2023-01-13T02:29:29.298Z,100002.91
2023-01-13T02:32:00.217Z,100004.75
2023-01-13T02:34:32.862Z,100001.19
2023-01-13T02:37:03.551Z,100004.03
2023-01-13T02:39:32.760Z,100012.06
2023-01-13T02:42:03.694Z,100008.38
2023-01-13T02:44:33.245Z,100021.06
2023-01-13T02:47:03.556Z,100014.72
2023-01-13T02:49:33.927Z,100019.94
2023-01-13T02:52:02.968Z,100026.28
2023-01-13T02:54:30.310Z,100021.91
2023-01-13T02:56:57.704Z,100018.41
2023-01-13T02:59:24.579Z,100015.84
2023-01-13T03:01:51.073Z,100017.56
2023-01-13T03:04:32.367Z,100025.59
2023-01-13T03:07:04.993Z,100026.53
2023-01-13T03:09:37.316Z,100030.94
2023-01-13T03:12:08.555Z,100027.38
2023-01-13T03:14:38.223Z,100034.56
2023-01-13T03:17:11.778Z,100024.84
2023-01-13T03:19:41.963Z,100024.84
2023-01-13T03:22:14.861Z,100027.38
2023-01-13T03:24:42.739Z,100024.34
2023-01-13T03:27:12.498Z,100017.47
2023-01-13T03:29:40.999Z,100019.72
2023-01-13T03:32:10.453Z,100034.28
2023-01-13T03:34:40.526Z,100031.19
2023-01-13T03:37:08.592Z,100037.00
2023-01-13T03:39:39.703Z,100025.03
2023-01-13T03:42:08.728Z,100026.44
2023-01-13T03:44:39.535Z,100019.72
2023-01-13T03:47:09.607Z,100031.00
2023-01-13T03:49:38.712Z,100042.28
2023-01-13T03:52:07.680Z,100052.75
2023-01-13T03:54:37.768Z,100038.19
2023-01-13T03:57:07.691Z,100050.50
2023-01-13T03:59:38.785Z,100051.06
2023-01-13T04:02:08.044Z,100050.94
2023-01-13T04:04:35.644Z,100050.63
2023-01-13T04:07:06.411Z,100069.13
2023-01-13T04:09:36.593Z,100068.03
2023-01-13T04:12:08.425Z,100067.75
2023-01-13T04:14:35.516Z,100099.66
2023-01-13T04:17:01.830Z,100085.25
2023-01-13T04:19:28.203Z,100084.16
2023-01-13T04:21:54.488Z,100083.06
2023-01-13T04:24:20.922Z,100084.75
2023-01-13T04:26:47.258Z,100093.47
2023-01-13T04:29:15.829Z,100088.84
2023-01-13T04:31:42.274Z,100093.22
2023-01-13T04:34:09.747Z,100092.09
2023-01-13T04:36:36.238Z,100088.28
2023-01-13T04:39:02.865Z,100080.94
2023-01-13T04:41:29.483Z,100094.34
2023-01-13T04:43:55.869Z,100081.66
2023-01-13T04:46:23.481Z,100090.44
2023-01-13T04:48:49.780Z,100096.66
2023-01-13T04:51:16.046Z,100093.69
2023-01-13T04:53:42.340Z,100108.63
2023-01-13T04:56:08.794Z,100109.47
2023-01-13T04:58:35.078Z,100108.50
2023-01-13T05:01:01.408Z,100116.41
2023-01-13T05:03:29.064Z,100114.44
2023-01-13T05:05:55.441Z,100121.50
2023-01-13T05:08:21.741Z,100132.94
2023-01-13T05:10:48.054Z,100132.94
2023-01-13T05:13:14.382Z,100135.63
2023-01-13T05:15:40.943Z,100139.84
2023-01-13T05:18:07.379Z,100130.84
2023-01-13T05:20:35.016Z,100125.31
2023-01-13T05:23:01.322Z,100129.69
2023-01-13T05:25:27.737Z,100126.03
2023-01-13T05:27:55.289Z,100127.72
2023-01-13T05:30:22.812Z,100115.88
2023-01-13T05:32:49.170Z,100112.03
2023-01-13T05:35:16.051Z,100113.88
2023-01-13T05:37:44.161Z,100125.34
2023-01-13T05:40:11.569Z,100134.22
2023-01-13T05:42:37.869Z,100126.19
2023-01-13T05:45:04.483Z,100133.97
2023-01-13T05:47:31.579Z,100130.72
2023-01-13T05:49:57.881Z,100120.28
2023-01-13T05:52:24.212Z,100119.28
2023-01-13T05:54:51.825Z,100130.00
2023-01-13T05:57:18.141Z,100126.03
2023-01-13T05:59:44.595Z,100143.16
2023-01-13T06:02:10.930Z,100156.84
2023-01-13T06:04:37.303Z,100164.03
2023-01-13T06:07:03.693Z,100157.28
2023-01-13T06:09:30.083Z,100157.97
2023-01-13T06:11:57.788Z,100164.19
2023-01-13T06:14:24.067Z,100187.38
2023-01-13T06:16:50.390Z,100188.78
2023-01-13T06:19:16.879Z,100205.44
2023-01-13T06:21:43.200Z,100202.06
2023-01-13T06:24:09.493Z,100201.34
2023-01-13T06:26:36.969Z,100201.66
2023-01-13T06:29:04.883Z,100194.28
2023-01-13T06:31:31.652Z,100186.09
2023-01-13T06:34:00.676Z,100188.34
2023-01-13T06:36:29.395Z,100200.22
2023-01-13T06:38:58.024Z,100206.56
2023-01-13T06:41:25.922Z,100213.63
2023-01-13T06:43:52.208Z,100213.50
2023-01-13T06:46:19.945Z,100213.50
2023-01-13T06:48:46.253Z,100218.59
2023-01-13T06:51:12.654Z,100213.94
2023-01-13T06:53:38.968Z,100215.41
2023-01-13T06:56:05.389Z,100225.28
2023-01-13T06:58:31.691Z,100224.56
2023-01-13T07:00:59.767Z,100226.91
2023-01-13T07:03:27.631Z,100239.66
2023-01-13T07:05:54.521Z,100248.56
2023-01-13T07:08:21.239Z,100244.88
2023-01-13T07:10:47.621Z,100245.88
2023-01-13T07:13:13.939Z,100254.66
2023-01-13T07:15:40.252Z,100242.91
2023-01-13T07:18:06.733Z,100248.97
2023-01-13T07:20:34.397Z,100246.25
2023-01-13T07:23:00.809Z,100233.97
2023-01-13T07:25:27.088Z,100251.75
2023-01-13T07:27:53.380Z,100266.56
2023-01-13T07:30:19.768Z,100257.91
2023-01-13T07:32:46.096Z,100278.53
2023-01-13T07:35:12.540Z,100279.06
2023-01-13T07:37:40.141Z,100284.91
2023-01-13T07:40:06.996Z,100288.47
2023-01-13T07:42:33.379Z,100295.06
2023-01-13T07:44:59.755Z,100292.53
2023-01-13T07:47:26.130Z,100292.81
2023-01-13T07:49:52.465Z,100296.59
2023-01-13T07:52:18.870Z,100304.56
2023-01-13T07:54:46.556Z,100306.72
2023-01-13T07:57:12.876Z,100316.78
2023-01-13T07:59:39.214Z,100337.88
2023-01-13T08:02:05.767Z,100333.81
2023-01-13T08:04:32.185Z,100331.56
2023-01-13T08:06:58.640Z,100329.56
2023-01-13T08:09:24.958Z,100326.03
2023-01-13T08:11:54.898Z,100320.69
2023-01-13T08:14:21.239Z,100337.50
2023-01-13T08:16:47.614Z,100323.78
2023-01-13T08:19:14.044Z,100333.56
2023-01-13T08:21:40.334Z,100331.56
2023-01-13T08:24:06.920Z,100344.03
2023-01-13T08:26:33.385Z,100341.19
2023-01-13T08:29:01.007Z,100331.28
2023-01-13T08:31:27.355Z,100335.13
2023-01-13T08:33:53.695Z,100343.03
2023-01-13T08:36:19.999Z,100324.81
2023-01-13T08:38:46.563Z,100328.91
2023-01-13T08:41:14.116Z,100339.94
2023-01-13T08:43:40.805Z,100338.38
2023-01-13T08:46:08.695Z,100342.63
2023-01-13T08:48:35.083Z,100353.53
2023-01-13T08:51:02.076Z,100353.38
2023-01-13T08:53:28.466Z,100362.84
2023-01-13T08:55:54.783Z,100379.91
2023-01-13T08:58:21.177Z,100386.69
2023-01-13T09:00:47.532Z,100390.50
2023-01-13T09:03:15.205Z,100398.81
2023-01-13T09:05:41.494Z,100408.56
2023-01-13T09:08:07.850Z,100413.50
2023-01-13T09:10:34.439Z,100416.34
2023-01-13T09:13:00.784Z,100425.81
2023-01-13T09:15:27.242Z,100422.88
2023-01-13T09:17:53.710Z,100429.97
2023-01-13T09:20:21.453Z,100427.88
2023-01-13T09:22:47.781Z,100439.03
2023-01-13T09:25:14.177Z,100431.81
2023-01-13T09:27:40.502Z,100435.22
2023-01-13T09:30:08.202Z,100436.91
2023-01-13T09:32:34.988Z,100433.97
2023-01-13T09:35:01.363Z,100437.66
2023-01-13T09:37:30.092Z,100433.31
2023-01-13T09:39:56.489Z,100435.66
2023-01-13T09:42:27.924Z,100433.50
2023-01-13T09:44:56.307Z,100436.88
2023-01-13T09:47:25.579Z,100441.97
2023-01-13T09:49:51.976Z,100438.16
2023-01-13T09:52:19.813Z,100454.78
2023-01-13T09:54:49.733Z,100454.50
2023-01-13T09:57:17.125Z,100463.53
2023-01-13T09:59:43.781Z,100468.63
2023-01-13T10:02:23.325Z,100467.38
2023-01-13T10:04:59.653Z,100465.41
2023-01-13T10:07:29.760Z,100479.50
2023-01-13T10:09:58.317Z,100477.78
2023-01-13T10:12:26.349Z,100498.66
2023-01-13T10:14:54.459Z,100494.53
2023-01-13T10:17:24.532Z,100505.97
2023-01-13T10:19:55.090Z,100518.44
2023-01-13T10:22:27.587Z,100526.66
2023-01-13T10:25:04.488Z,100524.44
2023-01-13T10:27:32.818Z,100527.44
2023-01-13T10:29:59.199Z,100522.63
2023-01-13T10:32:25.669Z,100524.75
2023-01-13T10:34:52.006Z,100529.00
2023-01-13T10:37:20.686Z,100523.41
2023-01-13T10:39:48.275Z,100522.41
2023-01-13T10:42:17.016Z,100530.97
2023-01-13T10:44:47.593Z,100542.06
2023-01-13T10:47:25.296Z,100535.41
2023-01-13T10:50:00.236Z,100536.88
2023-01-13T10:52:27.554Z,100529.38
2023-01-13T10:54:54.583Z,100521.03
2023-01-13T10:57:23.017Z,100523.28
2023-01-13T10:59:49.402Z,100527.97
2023-01-13T11:02:26.956Z,100522.59
2023-01-13T11:05:03.506Z,100532.81
2023-01-13T11:07:32.201Z,100532.53
2023-01-13T11:10:06.259Z,100535.22
2023-01-13T11:12:34.954Z,100543.13
2023-01-13T11:15:04.067Z,100543.69
2023-01-13T11:17:36.447Z,100548.66
2023-01-13T11:20:12.164Z,100545.41
2023-01-13T11:22:40.323Z,100536.91
2023-01-13T11:25:09.810Z,100531.25
2023-01-13T11:27:40.679Z,100526.44
2023-01-13T11:30:12.488Z,100546.38
2023-01-13T11:32:41.177Z,100540.31
2023-01-13T11:35:14.754Z,100546.53
2023-01-13T11:37:43.330Z,100542.31
2023-01-13T11:40:14.696Z,100544.16
2023-01-13T11:42:46.334Z,100538.59
2023-01-13T11:45:17.541Z,100549.50
2023-01-13T11:47:46.271Z,100560.84
2023-01-13T11:50:16.302Z,100566.91
2023-01-13T11:52:51.459Z,100562.97
2023-01-13T11:55:25.441Z,100558.97
2023-01-13T11:57:59.865Z,100560.25
2023-01-13T12:00:31.695Z,100569.31
2023-01-13T12:03:08.718Z,100563.09
2023-01-13T12:05:36.572Z,100563.34
2023-01-13T12:08:11.535Z,100570.59
2023-01-13T12:10:42.724Z,100565.94
2023-01-13T12:13:16.017Z,100571.59
2023-01-13T12:15:51.574Z,100580.09
2023-01-13T12:18:27.409Z,100576.56
2023-01-13T12:21:02.709Z,100568.50
2023-01-13T12:23:32.155Z,100565.28
2023-01-13T12:25:59.521Z,100561.81
2023-01-13T12:28:28.873Z,100569.72
2023-01-13T12:30:59.023Z,100559.50
2023-01-13T12:33:32.850Z,100563.31
2023-01-13T12:36:01.358Z,100555.16
2023-01-13T12:38:34.512Z,100558.44
2023-01-13T12:41:07.394Z,100555.47
2023-01-13T12:43:37.248Z,100557.44
2023-01-13T12:46:13.465Z,100555.91
2023-01-13T12:48:54.268Z,100567.63
2023-01-13T12:51:21.852Z,100560.78
2023-01-13T12:53:48.232Z,100564.75
2023-01-13T12:56:27.782Z,100562.22
2023-01-13T12:59:09.417Z,100565.13
2023-01-13T13:01:37.552Z,100569.25
2023-01-13T13:04:07.913Z,100580.09
2023-01-13T13:06:36.182Z,100581.69
2023-01-13T13:09:04.273Z,100578.25
2023-01-13T13:11:35.914Z,100589.78
2023-01-13T13:14:02.735Z,100576.84
2023-01-13T13:16:39.010Z,100585.31
2023-01-13T13:19:15.380Z,100593.38
2023-01-13T13:21:51.569Z,100596.00
2023-01-13T13:24:19.346Z,100597.91
2023-01-13T13:26:45.959Z,100602.69
2023-01-13T13:29:21.579Z,100593.06
2023-01-13T13:32:00.398Z,100608.44
2023-01-13T13:34:30.156Z,100607.75
2023-01-13T13:37:02.128Z,100608.44
2023-01-13T13:39:32.111Z,100616.63
2023-01-13T13:42:04.631Z,100608.06
2023-01-13T13:44:32.332Z,100629.41
2023-01-13T13:46:59.502Z,100629.63
2023-01-13T13:49:34.708Z,100633.41
2023-01-13T13:52:04.148Z,100625.13
2023-01-13T13:54:32.391Z,100628.91
2023-01-13T13:56:58.862Z,100628.91
2023-01-13T13:59:26.507Z,100628.31
2023-01-13T14:01:54.091Z,100631.25
2023-01-13T14:04:22.234Z,100635.53
2023-01-13T14:06:48.964Z,100627.59
2023-01-13T14:09:16.744Z,100618.69
2023-01-13T14:11:53.727Z,100627.06
2023-01-13T14:14:20.033Z,100627.78
2023-01-13T14:16:46.459Z,100638.41
2023-01-13T14:19:22.480Z,100642.84
2023-01-13T14:21:48.914Z,100651.75
2023-01-13T14:24:16.315Z,100637.97
2023-01-13T14:26:44.126Z,100637.13
2023-01-13T14:29:13.433Z,100646.03
2023-01-13T14:31:40.175Z,100653.81
2023-01-13T14:34:31.942Z,100657.94
2023-01-13T14:36:53.655Z,100653.03
2023-01-13T14:39:24.333Z,100652.78
2023-01-13T14:41:52.492Z,100658.72
2023-01-13T14:44:22.082Z,100665.81
2023-01-13T14:46:48.947Z,100665.69
2023-01-13T14:49:19.355Z,100670.91
2023-01-13T14:51:45.659Z,100679.56
2023-01-13T14:54:26.941Z,100686.63
2023-01-13T14:57:06.005Z,100684.81
2023-01-13T14:59:34.481Z,100682.44
2023-01-13T15:02:01.516Z,100687.13
2023-01-13T15:04:31.673Z,100687.97
2023-01-13T15:06:59.117Z,100688.16
2023-01-13T15:09:27.034Z,100688.56
2023-01-13T15:11:53.440Z,100683.72
2023-01-13T15:14:24.389Z,100689.31
2023-01-13T15:16:50.714Z,100690.66
2023-01-13T15:19:17.036Z,100696.16
2023-01-13T15:21:43.362Z,100696.75
2023-01-13T15:24:09.669Z,100700.31
2023-01-13T15:26:36.105Z,100699.84
2023-01-13T15:29:03.443Z,100688.09
2023-01-13T15:31:31.137Z,100695.31
2023-01-13T15:33:57.455Z,100703.38
2023-01-13T15:36:25.682Z,100705.22
2023-01-13T15:38:51.979Z,100709.75
2023-01-13T15:41:18.320Z,100709.59
2023-01-13T15:43:44.622Z,100705.38
2023-01-13T15:46:12.618Z,100707.22
2023-01-13T15:48:40.281Z,100708.16
2023-01-13T15:51:06.899Z,100700.06
2023-01-13T15:53:33.211Z,100708.28
2023-01-13T15:56:00.115Z,100718.06
2023-01-13T15:58:28.376Z,100722.59
2023-01-13T16:00:55.209Z,100724.88
2023-01-13T16:03:21.654Z,100728.16
2023-01-13T16:05:49.496Z,100726.63
2023-01-13T16:08:16.278Z,100716.97
2023-01-13T16:10:43.370Z,100700.25
2023-01-13T16:13:09.656Z,100708.72
2023-01-13T16:15:36.272Z,100701.75
2023-01-13T16:18:03.843Z,100690.53
2023-01-13T16:20:30.426Z,100693.50
2023-01-13T16:22:58.099Z,100684.72
2023-01-13T16:25:25.293Z,100693.03
2023-01-13T16:27:52.421Z,100698.56
2023-01-13T16:30:22.804Z,100707.72
2023-01-13T16:32:49.220Z,100698.91
2023-01-13T16:35:15.532Z,100694.53
2023-01-13T16:37:41.877Z,100697.47
2023-01-13T16:40:17.596Z,100694.09
2023-01-13T16:42:43.895Z,100701.41
2023-01-13T16:45:10.496Z,100709.63
2023-01-13T16:47:36.857Z,100704.34
2023-01-13T16:50:03.191Z,100709.03
2023-01-13T16:52:29.481Z,100715.34
2023-01-13T16:54:55.887Z,100720.03
2023-01-13T16:57:23.464Z,100727.34
2023-01-13T16:59:49.753Z,100729.28
2023-01-13T17:02:16.515Z,100733.09
2023-01-13T17:04:42.888Z,100745.69
2023-01-13T17:07:09.507Z,100752.88
2023-01-13T17:09:35.840Z,100763.00
2023-01-13T17:12:02.169Z,100774.75
2023-01-13T17:14:29.837Z,100771.34
2023-01-13T17:16:58.023Z,100770.59
2023-01-13T17:19:24.656Z,100767.16
2023-01-13T17:21:51.030Z,100759.38
2023-01-13T17:24:17.762Z,100761.19
2023-01-13T17:26:45.043Z,100768.38
2023-01-13T17:29:12.593Z,100778.53
2023-01-13T17:31:40.214Z,100776.97
2023-01-13T17:34:06.831Z,100783.19
2023-01-13T17:36:33.406Z,100775.25
2023-01-13T17:38:59.733Z,100781.59
2023-01-13T17:41:26.224Z,100770.13
2023-01-13T17:43:52.608Z,100767.56
2023-01-13T17:46:19.127Z,100764.03
2023-01-13T17:48:46.922Z,100762.31
2023-01-13T17:51:14.047Z,100763.44
2023-01-13T17:53:40.369Z,100747.34
2023-01-13T17:56:07.717Z,100752.94
2023-01-13T17:58:33.984Z,100752.09
2023-01-13T18:01:00.310Z,100741.59
2023-01-13T18:03:26.658Z,100737.22
2023-01-13T18:05:54.355Z,100747.97
2023-01-13T18:08:20.748Z,100742.69
2023-01-13T18:10:50.845Z,100740.16
2023-01-13T18:13:17.183Z,100755.41
2023-01-13T18:15:43.503Z,100759.19
2023-01-13T18:18:09.778Z,100761.13
2023-01-13T18:20:36.208Z,100764.81
2023-01-13T18:23:03.769Z,100759.56
2023-01-13T18:25:30.102Z,100745.28
2023-01-13T18:27:56.446Z,100757.84
2023-01-13T18:30:22.746Z,100752.47
2023-01-13T18:32:49.094Z,100749.94
2023-01-13T18:35:15.342Z,100747.34
2023-01-13T18:37:41.773Z,100750.03
2023-01-13T18:40:11.211Z,100746.50
2023-01-13T18:42:37.540Z,100740.44
2023-01-13T18:45:04.235Z,100734.19
2023-01-13T18:47:30.825Z,100750.41
2023-01-13T18:49:57.321Z,100756.03
2023-01-13T18:52:24.477Z,100761.28
2023-01-13T18:54:50.854Z,100756.88
2023-01-13T18:57:18.692Z,100751.66
2023-01-13T18:59:45.001Z,100753.47
2023-01-13T19:02:14.248Z,100759.81
2023-01-13T19:04:40.852Z,100756.28
2023-01-13T19:07:07.104Z,100756.41
2023-01-13T19:09:33.478Z,100757.38
2023-01-13T19:11:59.904Z,100755.66
2023-01-13T19:14:27.595Z,100752.13
2023-01-13T19:16:53.953Z,100744.09
2023-01-13T19:19:20.239Z,100747.75
2023-01-13T19:21:46.596Z,100743.47
2023-01-13T19:24:12.864Z,100738.09
2023-01-13T19:26:39.168Z,100746.28
2023-01-13T19:29:05.456Z,100740.94
2023-01-13T19:31:33.070Z,100740.09
2023-01-13T19:33:59.645Z,100733.00
2023-01-13T19:36:25.939Z,100725.06
2023-01-13T19:38:52.376Z,100719.72
2023-01-13T19:41:18.773Z,100723.38
2023-01-13T19:43:45.119Z,100713.59
2023-01-13T19:46:11.942Z,100716.28
2023-01-13T19:48:39.980Z,100707.53
2023-01-13T19:51:06.350Z,100709.34
2023-01-13T19:53:32.890Z,100704.84
2023-01-13T19:55:59.345Z,100713.00
2023-01-13T19:58:25.720Z,100712.16
2023-01-13T20:00:52.550Z,100715.81
2023-01-13T20:03:20.401Z,100709.59
2023-01-13T20:05:48.054Z,100704.34
2023-01-13T20:08:14.331Z,100715.06
2023-01-13T20:10:40.638Z,100718.75
2023-01-13T20:13:07.120Z,100721.41
2023-01-13T20:15:33.468Z,100724.09
2023-01-13T20:17:59.790Z,100725.09
2023-01-13T20:20:26.328Z,100722.41
2023-01-13T20:22:53.948Z,100721.66
2023-01-13T20:25:20.390Z,100719.84
2023-01-13T20:27:47.308Z,100706.56
2023-01-13T20:30:13.716Z,100706.56
2023-01-13T20:32:40.423Z,100706.56
2023-01-13T20:35:07.234Z,100706.66
2023-01-13T20:37:33.519Z,100706.81
2023-01-13T20:40:01.140Z,100703.13
2023-01-13T20:42:27.483Z,100703.28
2023-01-13T20:44:53.908Z,100701.53
2023-01-13T20:47:20.332Z,100701.53
2023-01-13T20:49:46.640Z,100704.22
2023-01-13T20:52:13.038Z,100708.75
2023-01-13T20:54:40.130Z,100708.75
2023-01-13T20:57:08.515Z,100704.22
2023-01-13T20:59:35.255Z,100708.75
2023-01-13T21:02:01.580Z,100714.22
2023-01-13T21:04:28.204Z,100721.44
2023-01-13T21:06:54.871Z,100717.00
2023-01-13T21:09:21.271Z,100704.47
2023-01-13T21:11:47.580Z,100698.22
2023-01-13T21:14:16.803Z,100699.09
2023-01-13T21:16:43.222Z,100691.94
2023-01-13T21:19:09.601Z,100684.81
2023-01-13T21:21:35.917Z,100680.44
2023-01-13T21:24:02.327Z,100682.13
2023-01-13T21:26:28.602Z,100683.13
2023-01-13T21:28:56.250Z,100681.41
2023-01-13T21:31:25.776Z,100681.41
2023-01-13T21:33:53.185Z,100688.63
2023-01-13T21:36:19.468Z,100676.06
2023-01-13T21:38:49.873Z,100660.06
2023-01-13T21:41:16.277Z,100662.91
2023-01-13T21:43:42.567Z,100658.53
2023-01-13T21:46:10.700Z,100646.94
2023-01-13T21:48:38.499Z,100645.13
2023-01-13T21:51:05.133Z,100650.47
2023-01-13T21:53:31.401Z,100645.13
2023-01-13T21:55:57.733Z,100645.22
2023-01-13T21:58:24.094Z,100640.69
2023-01-13T22:00:50.435Z,100647.06
2023-01-13T22:03:16.753Z,100643.38
2023-01-13T22:05:44.382Z,100630.97
2023-01-13T22:08:12.065Z,100623.78
2023-01-13T22:10:38.518Z,100625.59
2023-01-13T22:13:04.817Z,100629.97
2023-01-13T22:15:31.117Z,100627.44
2023-01-13T22:17:57.410Z,100628.28
2023-01-13T22:20:24.154Z,100623.91
2023-01-13T22:22:51.876Z,100611.47
2023-01-13T22:25:18.264Z,100611.47
2023-01-13T22:27:44.560Z,100607.09
2023-01-13T22:30:12.942Z,100598.94
2023-01-13T22:32:39.225Z,100597.22
2023-01-13T22:35:06.292Z,100589.16
2023-01-13T22:37:32.726Z,100575.91
2023-01-13T22:40:00.359Z,100565.19
2023-01-13T22:42:26.715Z,100561.50
2023-01-13T22:44:53.061Z,100555.44
2023-01-13T22:47:19.348Z,100548.25
2023-01-13T22:49:45.693Z,100543.84
2023-01-13T22:52:12.099Z,100536.69
2023-01-13T22:54:38.485Z,100540.19
2023-01-13T22:57:06.134Z,100534.09
2023-01-13T22:59:32.458Z,100534.94
2023-01-13T23:01:58.869Z,100525.06
2023-01-13T23:04:25.243Z,100529.59
2023-01-13T23:06:51.570Z,100531.41
2023-01-13T23:09:17.887Z,100533.25
2023-01-13T23:11:44.202Z,100520.84
2023-01-13T23:14:12.580Z,100526.19
2023-01-13T23:16:39.669Z,100520.00
2023-01-13T23:19:07.016Z,100516.31
2023-01-13T23:21:34.226Z,100518.16
2023-01-13T23:24:00.613Z,100507.44
2023-01-13T23:26:27.973Z,100486.09
2023-01-13T23:28:57.542Z,100482.56
2023-01-13T23:31:25.226Z,100486.09
2023-01-13T23:33:51.499Z,100494.28
2023-01-13T23:36:18.939Z,100479.91
2023-01-13T23:38:45.599Z,100463.81
2023-01-13T23:41:13.882Z,100449.56
2023-01-13T23:43:40.205Z,100448.72
2023-01-13T23:46:07.795Z,100438.84
2023-01-13T23:48:35.694Z,100433.63
2023-01-13T23:51:03.493Z,100432.63
2023-01-13T23:53:30.539Z,100422.91
2023-01-13T23:55:57.018Z,100422.03
2023-01-13T23:58:23.469Z,100419.34
